sensor_id;sensor_type;location;lat;lon;timestamp;P1;durP1;ratioP1;P2;durP2;ratioP2
46222;SDS011;31943;51.410;7.564;2023-01-10T00:01:04;16.42;;;6.68;;
46222;SDS011;31943;51.410;7.564;2023-01-10T00:03:32;13.73;;;7.85;;
46222;SDS011;31943;51.410;7.564;2023-01-10T00:05:58;20.50;;;9.73;;
46222;SDS011;31943;51.410;7.564;2023-01-10T00:08:24;19.27;;;8.05;;
46222;SDS011;31943;51.410;7.564;2023-01-10T00:10:49;14.55;;;6.93;;
46222;SDS011;31943;51.410;7.564;2023-01-10T00:13:15;28.75;;;14.65;;
46222;SDS011;31943;51.410;7.564;2023-01-10T00:15:41;18.55;;;9.30;;
46222;SDS011;31943;51.410;7.564;2023-01-10T00:18:07;18.45;;;9.20;;
46222;SDS011;31943;51.410;7.564;2023-01-10T00:20:34;21.05;;;10.35;;
46222;SDS011;31943;51.410;7.564;2023-01-10T00:23:00;20.60;;;10.15;;
46222;SDS011;31943;51.410;7.564;2023-01-10T00:25:26;18.50;;;8.60;;
46222;SDS011;31943;51.410;7.564;2023-01-10T00:27:52;18.95;;;8.02;;
46222;SDS011;31943;51.410;7.564;2023-01-10T00:30:18;20.55;;;11.77;;
46222;SDS011;31943;51.410;7.564;2023-01-10T00:32:44;15.15;;;8.38;;
46222;SDS011;31943;51.410;7.564;2023-01-10T00:35:10;17.17;;;9.60;;
46222;SDS011;31943;51.410;7.564;2023-01-10T00:37:39;19.45;;;8.65;;
46222;SDS011;31943;51.410;7.564;2023-01-10T00:40:05;25.73;;;11.13;;
46222;SDS011;31943;51.410;7.564;2023-01-10T00:42:32;15.80;;;9.75;;
46222;SDS011;31943;51.410;7.564;2023-01-10T00:44:57;18.73;;;9.35;;
46222;SDS011;31943;51.410;7.564;2023-01-10T00:47:23;16.90;;;10.18;;
46222;SDS011;31943;51.410;7.564;2023-01-10T00:49:48;18.10;;;8.18;;
46222;SDS011;31943;51.410;7.564;2023-01-10T00:52:14;16.77;;;7.45;;
46222;SDS011;31943;51.410;7.564;2023-01-10T00:54:41;16.42;;;7.85;;
46222;SDS011;31943;51.410;7.564;2023-01-10T00:57:07;18.33;;;8.07;;
46222;SDS011;31943;51.410;7.564;2023-01-10T00:59:33;13.50;;;7.15;;
46222;SDS011;31943;51.410;7.564;2023-01-10T01:01:58;10.75;;;6.43;;
46222;SDS011;31943;51.410;7.564;2023-01-10T01:04:24;16.17;;;7.93;;
46222;SDS011;31943;51.410;7.564;2023-01-10T01:06:50;17.05;;;7.10;;
46222;SDS011;31943;51.410;7.564;2023-01-10T01:09:16;10.52;;;6.88;;
46222;SDS011;31943;51.410;7.564;2023-01-10T01:11:43;14.70;;;7.05;;
46222;SDS011;31943;51.410;7.564;2023-01-10T01:14:09;14.00;;;6.00;;
46222;SDS011;31943;51.410;7.564;2023-01-10T01:16:35;12.90;;;6.40;;
46222;SDS011;31943;51.410;7.564;2023-01-10T01:19:00;12.45;;;5.80;;
46222;SDS011;31943;51.410;7.564;2023-01-10T01:21:26;15.20;;;6.05;;
46222;SDS011;31943;51.410;7.564;2023-01-10T01:23:52;11.73;;;5.43;;
46222;SDS011;31943;51.410;7.564;2023-01-10T01:26:18;12.93;;;5.80;;
46222;SDS011;31943;51.410;7.564;2023-01-10T01:28:45;14.27;;;5.93;;
46222;SDS011;31943;51.410;7.564;2023-01-10T01:31:10;13.98;;;5.70;;
46222;SDS011;31943;51.410;7.564;2023-01-10T01:33:37;15.07;;;5.82;;
46222;SDS011;31943;51.410;7.564;2023-01-10T01:36:06;12.25;;;5.30;;
46222;SDS011;31943;51.410;7.564;2023-01-10T01:38:32;13.63;;;5.60;;
46222;SDS011;31943;51.410;7.564;2023-01-10T01:40:58;11.02;;;5.75;;
46222;SDS011;31943;51.410;7.564;2023-01-10T01:43:24;16.92;;;6.03;;
46222;SDS011;31943;51.410;7.564;2023-01-10T01:45:54;13.20;;;5.30;;
46222;SDS011;31943;51.410;7.564;2023-01-10T01:48:27;14.57;;;5.65;;
46222;SDS011;31943;51.410;7.564;2023-01-10T01:50:58;14.05;;;4.93;;
46222;SDS011;31943;51.410;7.564;2023-01-10T01:53:27;13.13;;;4.72;;
46222;SDS011;31943;51.410;7.564;2023-01-10T01:55:56;12.25;;;5.43;;
46222;SDS011;31943;51.410;7.564;2023-01-10T01:58:25;13.23;;;5.47;;
46222;SDS011;31943;51.410;7.564;2023-01-10T02:01:01;15.70;;;5.28;;
46222;SDS011;31943;51.410;7.564;2023-01-10T02:03:26;10.93;;;5.05;;
46222;SDS011;31943;51.410;7.564;2023-01-10T02:05:54;9.70;;;5.18;;
46222;SDS011;31943;51.410;7.564;2023-01-10T02:08:19;19.25;;;4.47;;
46222;SDS011;31943;51.410;7.564;2023-01-10T02:10:47;12.52;;;4.35;;
46222;SDS011;31943;51.410;7.564;2023-01-10T02:15:44;10.88;;;4.60;;
46222;SDS011;31943;51.410;7.564;2023-01-10T02:18:11;14.50;;;4.07;;
46222;SDS011;31943;51.410;7.564;2023-01-10T02:20:39;10.85;;;4.90;;
46222;SDS011;31943;51.410;7.564;2023-01-10T02:23:23;10.68;;;5.10;;
46222;SDS011;31943;51.410;7.564;2023-01-10T02:29:39;8.98;;;3.65;;
46222;SDS011;31943;51.410;7.564;2023-01-10T02:32:33;13.18;;;4.43;;
46222;SDS011;31943;51.410;7.564;2023-01-10T02:35:09;11.15;;;3.97;;
46222;SDS011;31943;51.410;7.564;2023-01-10T02:37:48;9.15;;;3.47;;
46222;SDS011;31943;51.410;7.564;2023-01-10T02:40:23;11.07;;;4.05;;
46222;SDS011;31943;51.410;7.564;2023-01-10T02:42:56;13.98;;;3.65;;
46222;SDS011;31943;51.410;7.564;2023-01-10T02:45:27;11.43;;;3.72;;
46222;SDS011;31943;51.410;7.564;2023-01-10T02:47:59;11.40;;;3.85;;
46222;SDS011;31943;51.410;7.564;2023-01-10T02:50:29;14.38;;;3.85;;
46222;SDS011;31943;51.410;7.564;2023-01-10T02:53:08;14.95;;;3.72;;
46222;SDS011;31943;51.410;7.564;2023-01-10T02:55:39;12.52;;;3.78;;
46222;SDS011;31943;51.410;7.564;2023-01-10T02:58:18;9.65;;;3.15;;
46222;SDS011;31943;51.410;7.564;2023-01-10T03:00:56;12.32;;;3.78;;
46222;SDS011;31943;51.410;7.564;2023-01-10T03:03:32;14.40;;;3.53;;
46222;SDS011;31943;51.410;7.564;2023-01-10T03:06:10;11.15;;;3.28;;
46222;SDS011;31943;51.410;7.564;2023-01-10T03:08:47;9.02;;;3.00;;
46222;SDS011;31943;51.410;7.564;2023-01-10T03:11:19;9.40;;;2.70;;
46222;SDS011;31943;51.410;7.564;2023-01-10T03:13:48;13.82;;;3.22;;
46222;SDS011;31943;51.410;7.564;2023-01-10T03:16:18;16.55;;;4.18;;
46222;SDS011;31943;51.410;7.564;2023-01-10T03:18:50;12.73;;;3.58;;
46222;SDS011;31943;51.410;7.564;2023-01-10T03:21:21;9.70;;;2.90;;
46222;SDS011;31943;51.410;7.564;2023-01-10T03:23:48;18.85;;;4.00;;
46222;SDS011;31943;51.410;7.564;2023-01-10T03:26:16;10.65;;;2.85;;
46222;SDS011;31943;51.410;7.564;2023-01-10T03:28:51;7.70;;;2.70;;
46222;SDS011;31943;51.410;7.564;2023-01-10T03:31:25;15.23;;;3.00;;
46222;SDS011;31943;51.410;7.564;2023-01-10T03:33:56;10.65;;;3.10;;
46222;SDS011;31943;51.410;7.564;2023-01-10T03:36:23;7.43;;;2.28;;
46222;SDS011;31943;51.410;7.564;2023-01-10T03:38:56;12.60;;;3.08;;
46222;SDS011;31943;51.410;7.564;2023-01-10T03:41:32;14.45;;;3.03;;
46222;SDS011;31943;51.410;7.564;2023-01-10T03:44:04;9.65;;;2.83;;
46222;SDS011;31943;51.410;7.564;2023-01-10T03:46:40;14.23;;;3.05;;
46222;SDS011;31943;51.410;7.564;2023-01-10T03:49:14;13.00;;;3.13;;
46222;SDS011;31943;51.410;7.564;2023-01-10T03:51:42;7.88;;;2.28;;
46222;SDS011;31943;51.410;7.564;2023-01-10T03:54:08;11.48;;;2.55;;
46222;SDS011;31943;51.410;7.564;2023-01-10T03:56:44;9.07;;;2.72;;
46222;SDS011;31943;51.410;7.564;2023-01-10T03:59:11;12.85;;;3.67;;
46222;SDS011;31943;51.410;7.564;2023-01-10T04:01:36;13.88;;;3.58;;
46222;SDS011;31943;51.410;7.564;2023-01-10T04:04:02;10.98;;;3.50;;
46222;SDS011;31943;51.410;7.564;2023-01-10T04:06:30;16.05;;;3.90;;
46222;SDS011;31943;51.410;7.564;2023-01-10T04:08:55;11.10;;;3.40;;
46222;SDS011;31943;51.410;7.564;2023-01-10T04:11:21;9.85;;;3.63;;
46222;SDS011;31943;51.410;7.564;2023-01-10T04:13:46;9.90;;;3.83;;
46222;SDS011;31943;51.410;7.564;2023-01-10T04:16:12;13.82;;;4.78;;
46222;SDS011;31943;51.410;7.564;2023-01-10T04:18:37;17.40;;;4.18;;
46222;SDS011;31943;51.410;7.564;2023-01-10T04:21:03;12.80;;;4.35;;
46222;SDS011;31943;51.410;7.564;2023-01-10T04:23:31;12.30;;;4.13;;
46222;SDS011;31943;51.410;7.564;2023-01-10T04:25:56;12.35;;;3.90;;
46222;SDS011;31943;51.410;7.564;2023-01-10T04:28:23;14.02;;;4.30;;
46222;SDS011;31943;51.410;7.564;2023-01-10T04:30:49;11.55;;;3.42;;
46222;SDS011;31943;51.410;7.564;2023-01-10T04:33:14;12.82;;;3.88;;
46222;SDS011;31943;51.410;7.564;2023-01-10T04:35:41;12.25;;;4.00;;
46222;SDS011;31943;51.410;7.564;2023-01-10T04:38:11;8.93;;;3.72;;
46222;SDS011;31943;51.410;7.564;2023-01-10T04:40:38;6.95;;;3.05;;
46222;SDS011;31943;51.410;7.564;2023-01-10T04:43:04;12.23;;;3.40;;
46222;SDS011;31943;51.410;7.564;2023-01-10T04:45:29;17.90;;;4.15;;
46222;SDS011;31943;51.410;7.564;2023-01-10T04:47:55;9.30;;;3.42;;
46222;SDS011;31943;51.410;7.564;2023-01-10T04:50:21;12.63;;;4.00;;
46222;SDS011;31943;51.410;7.564;2023-01-10T04:52:46;13.25;;;4.70;;
46222;SDS011;31943;51.410;7.564;2023-01-10T04:55:12;8.73;;;3.42;;
46222;SDS011;31943;51.410;7.564;2023-01-10T04:57:40;9.15;;;3.80;;
46222;SDS011;31943;51.410;7.564;2023-01-10T05:00:06;11.15;;;3.90;;
46222;SDS011;31943;51.410;7.564;2023-01-10T05:02:33;12.32;;;3.63;;
46222;SDS011;31943;51.410;7.564;2023-01-10T05:04:59;10.95;;;3.22;;
46222;SDS011;31943;51.410;7.564;2023-01-10T05:07:25;10.55;;;3.40;;
46222;SDS011;31943;51.410;7.564;2023-01-10T05:09:51;12.85;;;3.53;;
46222;SDS011;31943;51.410;7.564;2023-01-10T05:12:17;12.55;;;3.35;;
46222;SDS011;31943;51.410;7.564;2023-01-10T05:14:45;13.48;;;3.75;;
46222;SDS011;31943;51.410;7.564;2023-01-10T05:17:11;8.93;;;3.08;;
46222;SDS011;31943;51.410;7.564;2023-01-10T05:19:36;12.68;;;3.53;;
46222;SDS011;31943;51.410;7.564;2023-01-10T05:22:02;9.48;;;3.35;;
46222;SDS011;31943;51.410;7.564;2023-01-10T05:24:28;10.38;;;3.75;;
46222;SDS011;31943;51.410;7.564;2023-01-10T05:26:53;13.57;;;3.90;;
46222;SDS011;31943;51.410;7.564;2023-01-10T05:29:19;12.93;;;3.50;;
46222;SDS011;31943;51.410;7.564;2023-01-10T05:31:47;13.02;;;4.10;;
46222;SDS011;31943;51.410;7.564;2023-01-10T05:34:14;11.73;;;3.63;;
46222;SDS011;31943;51.410;7.564;2023-01-10T05:36:40;13.63;;;3.63;;
46222;SDS011;31943;51.410;7.564;2023-01-10T05:39:07;13.13;;;4.60;;
46222;SDS011;31943;51.410;7.564;2023-01-10T05:41:33;12.45;;;4.07;;
46222;SDS011;31943;51.410;7.564;2023-01-10T05:43:59;13.60;;;3.55;;
46222;SDS011;31943;51.410;7.564;2023-01-10T05:46:25;12.85;;;4.13;;
46222;SDS011;31943;51.410;7.564;2023-01-10T05:48:52;19.10;;;4.28;;
46222;SDS011;31943;51.410;7.564;2023-01-10T05:51:17;15.07;;;4.25;;
46222;SDS011;31943;51.410;7.564;2023-01-10T05:53:43;16.40;;;3.88;;
46222;SDS011;31943;51.410;7.564;2023-01-10T05:56:08;11.98;;;3.50;;
46222;SDS011;31943;51.410;7.564;2023-01-10T05:58:34;17.55;;;4.18;;
46222;SDS011;31943;51.410;7.564;2023-01-10T06:01:00;13.43;;;4.40;;
46222;SDS011;31943;51.410;7.564;2023-01-10T06:03:26;18.73;;;3.95;;
46222;SDS011;31943;51.410;7.564;2023-01-10T06:05:53;12.18;;;3.92;;
46222;SDS011;31943;51.410;7.564;2023-01-10T06:08:21;13.93;;;4.47;;
46222;SDS011;31943;51.410;7.564;2023-01-10T06:10:47;13.82;;;3.90;;
46222;SDS011;31943;51.410;7.564;2023-01-10T06:13:14;14.02;;;4.00;;
46222;SDS011;31943;51.410;7.564;2023-01-10T06:15:39;14.63;;;4.20;;
46222;SDS011;31943;51.410;7.564;2023-01-10T06:18:05;12.50;;;3.72;;
46222;SDS011;31943;51.410;7.564;2023-01-10T06:20:31;11.80;;;3.85;;
46222;SDS011;31943;51.410;7.564;2023-01-10T06:23:00;13.32;;;3.72;;
46222;SDS011;31943;51.410;7.564;2023-01-10T06:25:28;14.60;;;4.25;;
46222;SDS011;31943;51.410;7.564;2023-01-10T06:27:55;19.08;;;4.45;;
46222;SDS011;31943;51.410;7.564;2023-01-10T06:30:20;13.18;;;3.85;;
46222;SDS011;31943;51.410;7.564;2023-01-10T06:32:46;15.57;;;4.20;;
46222;SDS011;31943;51.410;7.564;2023-01-10T06:35:11;13.07;;;4.50;;
46222;SDS011;31943;51.410;7.564;2023-01-10T06:37:37;16.85;;;6.07;;
46222;SDS011;31943;51.410;7.564;2023-01-10T06:40:05;12.27;;;4.93;;
46222;SDS011;31943;51.410;7.564;2023-01-10T06:42:32;13.40;;;4.82;;
46222;SDS011;31943;51.410;7.564;2023-01-10T06:44:58;15.27;;;4.93;;
46222;SDS011;31943;51.410;7.564;2023-01-10T06:47:25;14.70;;;5.20;;
46222;SDS011;31943;51.410;7.564;2023-01-10T06:49:53;14.02;;;5.65;;
46222;SDS011;31943;51.410;7.564;2023-01-10T06:52:36;16.33;;;6.20;;
46222;SDS011;31943;51.410;7.564;2023-01-10T06:55:07;13.73;;;6.13;;
46222;SDS011;31943;51.410;7.564;2023-01-10T06:57:38;15.90;;;6.57;;
46222;SDS011;31943;51.410;7.564;2023-01-10T07:00:07;16.20;;;6.00;;
46222;SDS011;31943;51.410;7.564;2023-01-10T07:02:36;21.88;;;7.15;;
46222;SDS011;31943;51.410;7.564;2023-01-10T07:05:04;18.35;;;5.90;;
46222;SDS011;31943;51.410;7.564;2023-01-10T07:07:30;15.82;;;6.25;;
46222;SDS011;31943;51.410;7.564;2023-01-10T07:09:58;17.20;;;6.40;;
46222;SDS011;31943;51.410;7.564;2023-01-10T07:12:28;17.67;;;6.53;;
46222;SDS011;31943;51.410;7.564;2023-01-10T07:14:55;18.75;;;7.53;;
46222;SDS011;31943;51.410;7.564;2023-01-10T07:17:24;21.63;;;6.22;;
46222;SDS011;31943;51.410;7.564;2023-01-10T07:19:49;20.08;;;6.53;;
46222;SDS011;31943;51.410;7.564;2023-01-10T07:22:15;21.98;;;7.32;;
46222;SDS011;31943;51.410;7.564;2023-01-10T07:24:41;21.20;;;7.07;;
46222;SDS011;31943;51.410;7.564;2023-01-10T07:27:06;19.90;;;6.28;;
46222;SDS011;31943;51.410;7.564;2023-01-10T07:29:34;16.08;;;5.70;;
46222;SDS011;31943;51.410;7.564;2023-01-10T07:31:59;21.90;;;6.75;;
46222;SDS011;31943;51.410;7.564;2023-01-10T07:34:25;22.98;;;6.70;;
46222;SDS011;31943;51.410;7.564;2023-01-10T07:36:51;15.30;;;6.38;;
46222;SDS011;31943;51.410;7.564;2023-01-10T07:39:16;21.60;;;7.53;;
46222;SDS011;31943;51.410;7.564;2023-01-10T07:41:42;22.50;;;6.70;;
46222;SDS011;31943;51.410;7.564;2023-01-10T07:44:08;25.67;;;6.78;;
46222;SDS011;31943;51.410;7.564;2023-01-10T07:46:35;15.63;;;6.60;;
46222;SDS011;31943;51.410;7.564;2023-01-10T07:49:01;24.25;;;7.30;;
46222;SDS011;31943;51.410;7.564;2023-01-10T07:51:27;22.67;;;6.80;;
46222;SDS011;31943;51.410;7.564;2023-01-10T07:53:53;22.60;;;6.43;;
46222;SDS011;31943;51.410;7.564;2023-01-10T07:56:19;14.02;;;6.03;;
46222;SDS011;31943;51.410;7.564;2023-01-10T07:58:44;14.70;;;6.63;;
46222;SDS011;31943;51.410;7.564;2023-01-10T08:01:10;19.20;;;6.53;;
46222;SDS011;31943;51.410;7.564;2023-01-10T08:03:37;22.42;;;6.60;;
46222;SDS011;31943;51.410;7.564;2023-01-10T08:06:04;17.27;;;6.53;;
46222;SDS011;31943;51.410;7.564;2023-01-10T08:08:31;21.02;;;6.25;;
46222;SDS011;31943;51.410;7.564;2023-01-10T08:10:58;16.33;;;5.95;;
46222;SDS011;31943;51.410;7.564;2023-01-10T08:13:23;20.05;;;6.35;;
46222;SDS011;31943;51.410;7.564;2023-01-10T08:15:50;16.08;;;6.07;;
46222;SDS011;31943;51.410;7.564;2023-01-10T08:18:15;21.05;;;6.70;;
46222;SDS011;31943;51.410;7.564;2023-01-10T08:20:43;21.40;;;6.53;;
46222;SDS011;31943;51.410;7.564;2023-01-10T08:23:08;22.35;;;6.57;;
46222;SDS011;31943;51.410;7.564;2023-01-10T08:25:34;21.70;;;6.63;;
46222;SDS011;31943;51.410;7.564;2023-01-10T08:27:59;20.92;;;6.28;;
46222;SDS011;31943;51.410;7.564;2023-01-10T08:30:25;21.65;;;6.93;;
46222;SDS011;31943;51.410;7.564;2023-01-10T08:32:51;20.23;;;6.28;;
46222;SDS011;31943;51.410;7.564;2023-01-10T08:35:17;23.20;;;6.72;;
46222;SDS011;31943;51.410;7.564;2023-01-10T08:37:44;21.27;;;6.38;;
46222;SDS011;31943;51.410;7.564;2023-01-10T08:40:10;17.80;;;6.95;;
46222;SDS011;31943;51.410;7.564;2023-01-10T08:42:36;22.55;;;6.65;;
46222;SDS011;31943;51.410;7.564;2023-01-10T08:45:01;27.08;;;7.38;;
46222;SDS011;31943;51.410;7.564;2023-01-10T08:47:27;22.83;;;5.95;;
46222;SDS011;31943;51.410;7.564;2023-01-10T08:49:53;19.45;;;6.63;;
46222;SDS011;31943;51.410;7.564;2023-01-10T08:52:18;19.02;;;6.53;;
46222;SDS011;31943;51.410;7.564;2023-01-10T08:54:45;19.15;;;7.05;;
46222;SDS011;31943;51.410;7.564;2023-01-10T08:57:11;25.80;;;7.57;;
46222;SDS011;31943;51.410;7.564;2023-01-10T08:59:37;25.75;;;6.80;;
46222;SDS011;31943;51.410;7.564;2023-01-10T09:02:02;20.00;;;6.75;;
46222;SDS011;31943;51.410;7.564;2023-01-10T09:04:28;23.00;;;6.72;;
46222;SDS011;31943;51.410;7.564;2023-01-10T09:06:54;25.13;;;7.85;;
46222;SDS011;31943;51.410;7.564;2023-01-10T09:09:20;25.58;;;6.32;;
46222;SDS011;31943;51.410;7.564;2023-01-10T09:11:47;23.00;;;6.72;;
46222;SDS011;31943;51.410;7.564;2023-01-10T09:14:13;25.23;;;7.10;;
46222;SDS011;31943;51.410;7.564;2023-01-10T09:16:39;29.27;;;7.32;;
46222;SDS011;31943;51.410;7.564;2023-01-10T09:19:05;20.15;;;6.80;;
46222;SDS011;31943;51.410;7.564;2023-01-10T09:21:31;19.95;;;6.18;;
46222;SDS011;31943;51.410;7.564;2023-01-10T09:23:56;24.50;;;6.88;;
46222;SDS011;31943;51.410;7.564;2023-01-10T09:26:22;20.45;;;7.90;;
46222;SDS011;31943;51.410;7.564;2023-01-10T09:28:49;28.92;;;6.63;;
46222;SDS011;31943;51.410;7.564;2023-01-10T09:31:15;29.05;;;7.25;;
46222;SDS011;31943;51.410;7.564;2023-01-10T09:33:41;22.88;;;6.18;;
46222;SDS011;31943;51.410;7.564;2023-01-10T09:36:06;24.45;;;6.50;;
46222;SDS011;31943;51.410;7.564;2023-01-10T09:38:32;26.85;;;6.50;;
46222;SDS011;31943;51.410;7.564;2023-01-10T09:41:04;24.73;;;6.68;;
46222;SDS011;31943;51.410;7.564;2023-01-10T09:43:50;22.77;;;6.60;;
46222;SDS011;31943;51.410;7.564;2023-01-10T09:46:25;21.17;;;6.90;;
46222;SDS011;31943;51.410;7.564;2023-01-10T09:48:59;26.52;;;6.70;;
46222;SDS011;31943;51.410;7.564;2023-01-10T09:51:32;24.23;;;6.72;;
46222;SDS011;31943;51.410;7.564;2023-01-10T09:54:01;22.83;;;6.63;;
46222;SDS011;31943;51.410;7.564;2023-01-10T09:56:29;28.95;;;7.40;;
46222;SDS011;31943;51.410;7.564;2023-01-10T09:58:59;22.77;;;6.22;;
46222;SDS011;31943;51.410;7.564;2023-01-10T10:01:26;18.15;;;6.47;;
46222;SDS011;31943;51.410;7.564;2023-01-10T10:03:59;24.50;;;6.35;;
46222;SDS011;31943;51.410;7.564;2023-01-10T10:06:28;21.58;;;6.05;;
46222;SDS011;31943;51.410;7.564;2023-01-10T10:08:54;18.38;;;5.93;;
46222;SDS011;31943;51.410;7.564;2023-01-10T10:11:27;26.35;;;5.72;;
46222;SDS011;31943;51.410;7.564;2023-01-10T10:14:04;23.60;;;6.10;;
46222;SDS011;31943;51.410;7.564;2023-01-10T10:16:39;21.83;;;6.00;;
46222;SDS011;31943;51.410;7.564;2023-01-10T10:19:20;26.83;;;5.97;;
46222;SDS011;31943;51.410;7.564;2023-01-10T10:21:56;28.00;;;5.68;;
46222;SDS011;31943;51.410;7.564;2023-01-10T10:24:38;21.50;;;5.38;;
46222;SDS011;31943;51.410;7.564;2023-01-10T10:27:18;25.67;;;6.25;;
46222;SDS011;31943;51.410;7.564;2023-01-10T10:29:52;21.17;;;5.80;;
46222;SDS011;31943;51.410;7.564;2023-01-10T10:32:42;19.17;;;5.75;;
46222;SDS011;31943;51.410;7.564;2023-01-10T10:35:23;23.63;;;5.38;;
46222;SDS011;31943;51.410;7.564;2023-01-10T10:37:55;21.83;;;5.65;;
46222;SDS011;31943;51.410;7.564;2023-01-10T10:40:24;22.67;;;5.13;;
46222;SDS011;31943;51.410;7.564;2023-01-10T10:42:56;19.58;;;5.03;;
46222;SDS011;31943;51.410;7.564;2023-01-10T10:45:34;17.35;;;4.70;;
46222;SDS011;31943;51.410;7.564;2023-01-10T10:48:02;18.75;;;4.90;;
46222;SDS011;31943;51.410;7.564;2023-01-10T10:50:42;18.77;;;4.55;;
46222;SDS011;31943;51.410;7.564;2023-01-10T10:53:14;25.13;;;5.18;;
46222;SDS011;31943;51.410;7.564;2023-01-10T10:55:39;24.63;;;5.28;;
46222;SDS011;31943;51.410;7.564;2023-01-10T10:58:06;19.42;;;5.22;;
46222;SDS011;31943;51.410;7.564;2023-01-10T11:00:35;18.70;;;4.38;;
46222;SDS011;31943;51.410;7.564;2023-01-10T11:03:02;23.98;;;5.35;;
46222;SDS011;31943;51.410;7.564;2023-01-10T11:05:31;20.88;;;4.68;;
46222;SDS011;31943;51.410;7.564;2023-01-10T11:08:02;18.42;;;4.30;;
46222;SDS011;31943;51.410;7.564;2023-01-10T11:10:29;21.30;;;4.32;;
46222;SDS011;31943;51.410;7.564;2023-01-10T11:12:57;17.70;;;3.97;;
46222;SDS011;31943;51.410;7.564;2023-01-10T11:15:35;19.63;;;4.72;;
46222;SDS011;31943;51.410;7.564;2023-01-10T11:18:04;19.58;;;4.72;;
46222;SDS011;31943;51.410;7.564;2023-01-10T11:20:30;21.08;;;5.18;;
46222;SDS011;31943;51.410;7.564;2023-01-10T11:22:57;18.13;;;4.50;;
46222;SDS011;31943;51.410;7.564;2023-01-10T11:25:23;17.92;;;4.68;;
46222;SDS011;31943;51.410;7.564;2023-01-10T11:27:50;16.77;;;4.30;;
46222;SDS011;31943;51.410;7.564;2023-01-10T11:30:18;17.25;;;4.22;;
46222;SDS011;31943;51.410;7.564;2023-01-10T11:32:52;19.00;;;4.05;;
46222;SDS011;31943;51.410;7.564;2023-01-10T11:35:20;15.18;;;4.38;;
46222;SDS011;31943;51.410;7.564;2023-01-10T11:37:59;18.60;;;4.18;;
46222;SDS011;31943;51.410;7.564;2023-01-10T11:40:26;18.45;;;4.00;;
46222;SDS011;31943;51.410;7.564;2023-01-10T11:42:52;17.55;;;4.68;;
46222;SDS011;31943;51.410;7.564;2023-01-10T11:45:20;16.45;;;4.68;;
46222;SDS011;31943;51.410;7.564;2023-01-10T11:47:53;19.08;;;4.55;;
46222;SDS011;31943;51.410;7.564;2023-01-10T11:50:23;18.73;;;4.10;;
46222;SDS011;31943;51.410;7.564;2023-01-10T11:52:50;16.95;;;4.28;;
46222;SDS011;31943;51.410;7.564;2023-01-10T11:55:17;22.10;;;4.45;;
46222;SDS011;31943;51.410;7.564;2023-01-10T11:57:45;20.67;;;3.58;;
46222;SDS011;31943;51.410;7.564;2023-01-10T12:00:18;13.30;;;3.50;;
46222;SDS011;31943;51.410;7.564;2023-01-10T12:02:44;17.90;;;3.33;;
46222;SDS011;31943;51.410;7.564;2023-01-10T12:05:18;13.82;;;3.72;;
46222;SDS011;31943;51.410;7.564;2023-01-10T12:07:55;19.48;;;3.80;;
46222;SDS011;31943;51.410;7.564;2023-01-10T12:10:22;17.17;;;3.78;;
46222;SDS011;31943;51.410;7.564;2023-01-10T12:12:52;22.75;;;4.25;;
46222;SDS011;31943;51.410;7.564;2023-01-10T12:15:20;18.60;;;3.67;;
46222;SDS011;31943;51.410;7.564;2023-01-10T12:17:48;14.38;;;3.83;;
46222;SDS011;31943;51.410;7.564;2023-01-10T12:20:15;16.02;;;3.70;;
46222;SDS011;31943;51.410;7.564;2023-01-10T12:22:42;15.95;;;3.13;;
46222;SDS011;31943;51.410;7.564;2023-01-10T12:25:14;18.27;;;3.53;;
46222;SDS011;31943;51.410;7.564;2023-01-10T12:27:43;17.35;;;3.45;;
46222;SDS011;31943;51.410;7.564;2023-01-10T12:30:10;18.80;;;4.07;;
46222;SDS011;31943;51.410;7.564;2023-01-10T12:32:40;13.40;;;3.40;;
46222;SDS011;31943;51.410;7.564;2023-01-10T12:35:10;16.45;;;3.35;;
46222;SDS011;31943;51.410;7.564;2023-01-10T12:37:44;12.15;;;2.85;;
46222;SDS011;31943;51.410;7.564;2023-01-10T12:40:13;12.38;;;3.55;;
46222;SDS011;31943;51.410;7.564;2023-01-10T12:42:45;14.43;;;2.80;;
46222;SDS011;31943;51.410;7.564;2023-01-10T12:45:18;17.10;;;3.80;;
46222;SDS011;31943;51.410;7.564;2023-01-10T12:47:55;14.80;;;3.15;;
46222;SDS011;31943;51.410;7.564;2023-01-10T12:50:28;16.00;;;3.67;;
46222;SDS011;31943;51.410;7.564;2023-01-10T12:53:01;18.00;;;3.85;;
46222;SDS011;31943;51.410;7.564;2023-01-10T12:55:32;18.98;;;3.15;;
46222;SDS011;31943;51.410;7.564;2023-01-10T12:58:01;14.60;;;3.28;;
46222;SDS011;31943;51.410;7.564;2023-01-10T13:00:29;16.75;;;2.80;;
46222;SDS011;31943;51.410;7.564;2023-01-10T13:02:59;16.63;;;3.42;;
46222;SDS011;31943;51.410;7.564;2023-01-10T13:05:28;12.82;;;2.60;;
46222;SDS011;31943;51.410;7.564;2023-01-10T13:07:55;12.73;;;3.42;;
46222;SDS011;31943;51.410;7.564;2023-01-10T13:10:28;16.60;;;3.03;;
46222;SDS011;31943;51.410;7.564;2023-01-10T13:12:57;15.68;;;3.72;;
46222;SDS011;31943;51.410;7.564;2023-01-10T13:17:57;13.32;;;3.92;;
46222;SDS011;31943;51.410;7.564;2023-01-10T13:20:34;11.57;;;4.22;;
46222;SDS011;31943;51.410;7.564;2023-01-10T13:23:11;15.05;;;4.22;;
46222;SDS011;31943;51.410;7.564;2023-01-10T13:25:39;18.75;;;3.80;;
46222;SDS011;31943;51.410;7.564;2023-01-10T13:28:06;19.63;;;4.38;;
46222;SDS011;31943;51.410;7.564;2023-01-10T13:30:49;17.15;;;4.15;;
46222;SDS011;31943;51.410;7.564;2023-01-10T13:33:18;15.90;;;3.22;;
46222;SDS011;31943;51.410;7.564;2023-01-10T13:35:47;17.20;;;3.45;;
46222;SDS011;31943;51.410;7.564;2023-01-10T13:38:18;12.63;;;2.72;;
46222;SDS011;31943;51.410;7.564;2023-01-10T13:40:56;20.15;;;3.35;;
46222;SDS011;31943;51.410;7.564;2023-01-10T13:43:28;13.63;;;3.63;;
46222;SDS011;31943;51.410;7.564;2023-01-10T13:52:27;11.77;;;3.25;;
46222;SDS011;31943;51.410;7.564;2023-01-10T13:54:56;15.18;;;2.90;;
46222;SDS011;31943;51.410;7.564;2023-01-10T14:00:20;9.90;;;2.75;;
46222;SDS011;31943;51.410;7.564;2023-01-10T14:02:47;10.98;;;3.08;;
46222;SDS011;31943;51.410;7.564;2023-01-10T14:05:14;13.20;;;2.25;;
46222;SDS011;31943;51.410;7.564;2023-01-10T14:07:42;10.68;;;2.58;;
46222;SDS011;31943;51.410;7.564;2023-01-10T14:10:17;15.13;;;3.45;;
46222;SDS011;31943;51.410;7.564;2023-01-10T14:12:47;16.98;;;3.63;;
46222;SDS011;31943;51.410;7.564;2023-01-10T14:15:20;12.25;;;3.08;;
46222;SDS011;31943;51.410;7.564;2023-01-10T14:17:54;12.38;;;2.58;;
46222;SDS011;31943;51.410;7.564;2023-01-10T14:20:22;14.73;;;3.30;;
46222;SDS011;31943;51.410;7.564;2023-01-10T14:23:04;14.10;;;2.80;;
46222;SDS011;31943;51.410;7.564;2023-01-10T14:25:33;11.38;;;3.25;;
46222;SDS011;31943;51.410;7.564;2023-01-10T14:28:01;11.50;;;2.70;;
46222;SDS011;31943;51.410;7.564;2023-01-10T14:30:29;13.38;;;2.53;;
46222;SDS011;31943;51.410;7.564;2023-01-10T14:32:58;12.43;;;2.28;;
46222;SDS011;31943;51.410;7.564;2023-01-10T14:35:30;11.98;;;2.95;;
46222;SDS011;31943;51.410;7.564;2023-01-10T14:38:00;10.30;;;2.35;;
46222;SDS011;31943;51.410;7.564;2023-01-10T14:40:28;15.02;;;3.28;;
46222;SDS011;31943;51.410;7.564;2023-01-10T14:43:02;12.85;;;2.63;;
46222;SDS011;31943;51.410;7.564;2023-01-10T14:45:36;13.68;;;2.47;;
46222;SDS011;31943;51.410;7.564;2023-01-10T14:48:20;11.10;;;2.58;;
46222;SDS011;31943;51.410;7.564;2023-01-10T14:50:48;13.50;;;2.80;;
46222;SDS011;31943;51.410;7.564;2023-01-10T14:53:23;12.93;;;3.40;;
46222;SDS011;31943;51.410;7.564;2023-01-10T14:55:52;11.63;;;2.28;;
46222;SDS011;31943;51.410;7.564;2023-01-10T14:58:17;11.73;;;2.72;;
46222;SDS011;31943;51.410;7.564;2023-01-10T15:00:43;13.23;;;2.90;;
46222;SDS011;31943;51.410;7.564;2023-01-10T15:03:13;8.35;;;2.22;;